Casitas Springs, California
Current Conditions -  °F | °C
As of 9:51 PM on Tuesday 21 Oct 2014 (Local Time) from KOXR Reporting Station
Clear Clear  
Wind Chill: 64°   Ceiling: Unl
Heat Index: 64°   Visibility: 9mi
Dew Point: 58°   Wind: 3mph
Humidity: 80%   Direction: 70°ENE
Pressure: 29.86"   Gusts: NA
Location:  34.3488°N, 119.33°W
Report Text: KOXR 220451Z AUTO 07003KT 9SM CLR 18/14 A2986 RMK AO2 SLP111 T01780144
Loading
Personal Weather Stations






























Interactive Weather Map
Tropical Storm Tracking
New forecast layout! Learn more

10-Day Weather Forecast

Advertisements
Track Severe Weather on mobile